sensor_id;sensor_type;location;lat;lon;timestamp;P1;durP1;ratioP1;P2;durP2;ratioP2
28353;SDS011;15603;50.878;8.036;2022-08-19T00:01:53;29.52;;;18.70;;
28353;SDS011;15603;50.878;8.036;2022-08-19T00:04:24;28.63;;;17.67;;
28353;SDS011;15603;50.878;8.036;2022-08-19T00:06:56;35.00;;;18.02;;
28353;SDS011;15603;50.878;8.036;2022-08-19T00:09:24;28.55;;;18.25;;
28353;SDS011;15603;50.878;8.036;2022-08-19T00:11:52;37.13;;;20.08;;
28353;SDS011;15603;50.878;8.036;2022-08-19T00:14:23;31.98;;;18.17;;
28353;SDS011;15603;50.878;8.036;2022-08-19T00:16:52;30.27;;;18.55;;
28353;SDS011;15603;50.878;8.036;2022-08-19T00:19:21;27.50;;;18.00;;
28353;SDS011;15603;50.878;8.036;2022-08-19T00:21:50;29.98;;;19.08;;
28353;SDS011;15603;50.878;8.036;2022-08-19T00:24:17;29.27;;;17.75;;
28353;SDS011;15603;50.878;8.036;2022-08-19T00:26:45;28.77;;;16.90;;
28353;SDS011;15603;50.878;8.036;2022-08-19T00:29:14;25.02;;;16.85;;
28353;SDS011;15603;50.878;8.036;2022-08-19T00:31:43;28.35;;;17.60;;
28353;SDS011;15603;50.878;8.036;2022-08-19T00:34:11;30.05;;;18.77;;
28353;SDS011;15603;50.878;8.036;2022-08-19T00:36:40;27.30;;;17.77;;
28353;SDS011;15603;50.878;8.036;2022-08-19T00:39:08;28.80;;;17.83;;
28353;SDS011;15603;50.878;8.036;2022-08-19T00:41:36;33.55;;;18.35;;
28353;SDS011;15603;50.878;8.036;2022-08-19T00:44:09;29.67;;;18.13;;
28353;SDS011;15603;50.878;8.036;2022-08-19T00:46:49;36.15;;;19.20;;
28353;SDS011;15603;50.878;8.036;2022-08-19T00:49:37;32.08;;;18.42;;
28353;SDS011;15603;50.878;8.036;2022-08-19T00:52:08;29.17;;;18.13;;
28353;SDS011;15603;50.878;8.036;2022-08-19T00:54:39;33.17;;;20.60;;
28353;SDS011;15603;50.878;8.036;2022-08-19T00:57:09;37.00;;;19.67;;
28353;SDS011;15603;50.878;8.036;2022-08-19T00:59:42;30.27;;;19.30;;
28353;SDS011;15603;50.878;8.036;2022-08-19T01:02:29;42.47;;;20.13;;
28353;SDS011;15603;50.878;8.036;2022-08-19T01:04:59;36.20;;;19.92;;
28353;SDS011;15603;50.878;8.036;2022-08-19T01:07:29;43.88;;;20.38;;
28353;SDS011;15603;50.878;8.036;2022-08-19T01:10:05;31.83;;;18.27;;
28353;SDS011;15603;50.878;8.036;2022-08-19T01:12:37;31.23;;;19.02;;
28353;SDS011;15603;50.878;8.036;2022-08-19T01:15:06;36.20;;;19.25;;
28353;SDS011;15603;50.878;8.036;2022-08-19T01:17:36;35.00;;;20.10;;
28353;SDS011;15603;50.878;8.036;2022-08-19T01:20:07;38.92;;;20.65;;
28353;SDS011;15603;50.878;8.036;2022-08-19T01:22:40;36.33;;;19.80;;
28353;SDS011;15603;50.878;8.036;2022-08-19T01:25:13;33.80;;;19.92;;
28353;SDS011;15603;50.878;8.036;2022-08-19T01:27:44;43.40;;;21.10;;
28353;SDS011;15603;50.878;8.036;2022-08-19T01:30:21;40.55;;;20.38;;
28353;SDS011;15603;50.878;8.036;2022-08-19T01:32:53;38.75;;;21.05;;
28353;SDS011;15603;50.878;8.036;2022-08-19T01:35:22;34.58;;;19.55;;
28353;SDS011;15603;50.878;8.036;2022-08-19T01:37:53;35.65;;;19.10;;
28353;SDS011;15603;50.878;8.036;2022-08-19T01:40:25;31.75;;;18.77;;
28353;SDS011;15603;50.878;8.036;2022-08-19T01:42:54;41.00;;;20.40;;
28353;SDS011;15603;50.878;8.036;2022-08-19T01:45:22;33.70;;;18.80;;
28353;SDS011;15603;50.878;8.036;2022-08-19T01:47:52;39.95;;;19.63;;
28353;SDS011;15603;50.878;8.036;2022-08-19T01:50:29;38.40;;;20.35;;
28353;SDS011;15603;50.878;8.036;2022-08-19T01:52:58;32.78;;;19.75;;
28353;SDS011;15603;50.878;8.036;2022-08-19T01:55:32;34.85;;;19.60;;
28353;SDS011;15603;50.878;8.036;2022-08-19T01:58:17;38.78;;;20.38;;
28353;SDS011;15603;50.878;8.036;2022-08-19T02:00:47;32.95;;;19.52;;
28353;SDS011;15603;50.878;8.036;2022-08-19T02:03:15;33.40;;;19.80;;
28353;SDS011;15603;50.878;8.036;2022-08-19T02:05:43;34.42;;;19.98;;
28353;SDS011;15603;50.878;8.036;2022-08-19T02:08:11;36.95;;;20.05;;
28353;SDS011;15603;50.878;8.036;2022-08-19T02:10:40;36.05;;;20.83;;
28353;SDS011;15603;50.878;8.036;2022-08-19T02:13:09;33.50;;;19.50;;
28353;SDS011;15603;50.878;8.036;2022-08-19T02:15:38;30.15;;;18.67;;
28353;SDS011;15603;50.878;8.036;2022-08-19T02:18:05;33.45;;;20.23;;
28353;SDS011;15603;50.878;8.036;2022-08-19T02:20:34;33.72;;;20.20;;
28353;SDS011;15603;50.878;8.036;2022-08-19T02:23:02;34.80;;;19.67;;
28353;SDS011;15603;50.878;8.036;2022-08-19T02:25:30;33.60;;;20.40;;
28353;SDS011;15603;50.878;8.036;2022-08-19T02:27:57;35.88;;;20.05;;
28353;SDS011;15603;50.878;8.036;2022-08-19T02:30:24;36.70;;;20.92;;
28353;SDS011;15603;50.878;8.036;2022-08-19T02:32:52;34.42;;;19.60;;
28353;SDS011;15603;50.878;8.036;2022-08-19T02:35:20;30.65;;;19.85;;
28353;SDS011;15603;50.878;8.036;2022-08-19T02:37:47;30.92;;;20.85;;
28353;SDS011;15603;50.878;8.036;2022-08-19T02:40:33;36.53;;;20.70;;
28353;SDS011;15603;50.878;8.036;2022-08-19T02:43:02;32.38;;;20.20;;
28353;SDS011;15603;50.878;8.036;2022-08-19T02:45:33;32.20;;;21.10;;
28353;SDS011;15603;50.878;8.036;2022-08-19T02:48:00;33.20;;;20.48;;
28353;SDS011;15603;50.878;8.036;2022-08-19T02:50:38;31.90;;;20.30;;
28353;SDS011;15603;50.878;8.036;2022-08-19T02:53:18;34.78;;;21.70;;
28353;SDS011;15603;50.878;8.036;2022-08-19T02:55:46;31.40;;;19.70;;
28353;SDS011;15603;50.878;8.036;2022-08-19T02:58:14;34.17;;;20.73;;
28353;SDS011;15603;50.878;8.036;2022-08-19T03:00:45;33.42;;;20.45;;
28353;SDS011;15603;50.878;8.036;2022-08-19T03:03:15;32.83;;;19.55;;
28353;SDS011;15603;50.878;8.036;2022-08-19T03:05:43;35.47;;;19.73;;
28353;SDS011;15603;50.878;8.036;2022-08-19T03:08:22;44.95;;;21.38;;
28353;SDS011;15603;50.878;8.036;2022-08-19T03:10:49;35.85;;;20.08;;
28353;SDS011;15603;50.878;8.036;2022-08-19T03:13:18;39.45;;;21.17;;
28353;SDS011;15603;50.878;8.036;2022-08-19T03:15:46;37.15;;;19.45;;
28353;SDS011;15603;50.878;8.036;2022-08-19T03:18:14;35.75;;;19.65;;
28353;SDS011;15603;50.878;8.036;2022-08-19T03:20:44;31.92;;;19.92;;
28353;SDS011;15603;50.878;8.036;2022-08-19T03:23:14;32.13;;;18.88;;
28353;SDS011;15603;50.878;8.036;2022-08-19T03:25:43;33.60;;;18.77;;
28353;SDS011;15603;50.878;8.036;2022-08-19T03:28:12;32.70;;;19.63;;
28353;SDS011;15603;50.878;8.036;2022-08-19T03:30:42;34.20;;;19.23;;
28353;SDS011;15603;50.878;8.036;2022-08-19T03:33:10;32.65;;;19.27;;
28353;SDS011;15603;50.878;8.036;2022-08-19T03:35:44;37.00;;;19.25;;
28353;SDS011;15603;50.878;8.036;2022-08-19T03:38:11;29.23;;;16.85;;
28353;SDS011;15603;50.878;8.036;2022-08-19T03:40:38;34.35;;;18.15;;
28353;SDS011;15603;50.878;8.036;2022-08-19T03:43:05;31.02;;;18.75;;
28353;SDS011;15603;50.878;8.036;2022-08-19T03:45:33;29.38;;;16.42;;
28353;SDS011;15603;50.878;8.036;2022-08-19T03:48:00;29.25;;;15.88;;
28353;SDS011;15603;50.878;8.036;2022-08-19T03:50:27;32.65;;;16.45;;
28353;SDS011;15603;50.878;8.036;2022-08-19T03:52:54;29.60;;;16.25;;
28353;SDS011;15603;50.878;8.036;2022-08-19T03:55:21;27.65;;;17.13;;
28353;SDS011;15603;50.878;8.036;2022-08-19T03:57:48;28.73;;;16.85;;
28353;SDS011;15603;50.878;8.036;2022-08-19T04:00:15;30.48;;;16.45;;
28353;SDS011;15603;50.878;8.036;2022-08-19T04:02:43;29.83;;;16.50;;
28353;SDS011;15603;50.878;8.036;2022-08-19T04:05:27;31.45;;;17.10;;
28353;SDS011;15603;50.878;8.036;2022-08-19T04:07:55;30.30;;;17.60;;
28353;SDS011;15603;50.878;8.036;2022-08-19T04:10:26;33.65;;;17.73;;
28353;SDS011;15603;50.878;8.036;2022-08-19T04:12:54;39.03;;;18.23;;
28353;SDS011;15603;50.878;8.036;2022-08-19T04:15:21;34.63;;;17.10;;
28353;SDS011;15603;50.878;8.036;2022-08-19T04:17:49;28.63;;;16.42;;
28353;SDS011;15603;50.878;8.036;2022-08-19T04:20:16;31.10;;;16.73;;
28353;SDS011;15603;50.878;8.036;2022-08-19T04:22:43;31.13;;;16.65;;
28353;SDS011;15603;50.878;8.036;2022-08-19T04:25:10;29.38;;;16.77;;
28353;SDS011;15603;50.878;8.036;2022-08-19T04:27:37;30.77;;;16.30;;
28353;SDS011;15603;50.878;8.036;2022-08-19T04:30:04;35.90;;;16.40;;
28353;SDS011;15603;50.878;8.036;2022-08-19T04:32:32;27.60;;;16.17;;
28353;SDS011;15603;50.878;8.036;2022-08-19T04:34:59;34.55;;;17.40;;
28353;SDS011;15603;50.878;8.036;2022-08-19T04:40:09;34.70;;;17.52;;
28353;SDS011;15603;50.878;8.036;2022-08-19T04:42:55;33.72;;;17.58;;
28353;SDS011;15603;50.878;8.036;2022-08-19T04:45:23;36.33;;;17.58;;
28353;SDS011;15603;50.878;8.036;2022-08-19T04:47:54;30.98;;;16.42;;
28353;SDS011;15603;50.878;8.036;2022-08-19T04:50:44;33.25;;;17.83;;
28353;SDS011;15603;50.878;8.036;2022-08-19T04:53:11;36.03;;;17.88;;
28353;SDS011;15603;50.878;8.036;2022-08-19T04:55:41;37.22;;;18.02;;
28353;SDS011;15603;50.878;8.036;2022-08-19T04:58:09;31.70;;;17.08;;
28353;SDS011;15603;50.878;8.036;2022-08-19T05:00:37;32.92;;;18.52;;
28353;SDS011;15603;50.878;8.036;2022-08-19T05:03:06;35.28;;;18.05;;
28353;SDS011;15603;50.878;8.036;2022-08-19T05:05:37;33.03;;;18.33;;
28353;SDS011;15603;50.878;8.036;2022-08-19T05:08:15;39.40;;;19.58;;
28353;SDS011;15603;50.878;8.036;2022-08-19T05:10:57;31.92;;;17.95;;
28353;SDS011;15603;50.878;8.036;2022-08-19T05:13:25;39.10;;;18.00;;
28353;SDS011;15603;50.878;8.036;2022-08-19T05:15:54;34.95;;;19.70;;
28353;SDS011;15603;50.878;8.036;2022-08-19T05:18:23;34.08;;;19.02;;
28353;SDS011;15603;50.878;8.036;2022-08-19T05:21:09;38.70;;;18.95;;
28353;SDS011;15603;50.878;8.036;2022-08-19T05:23:57;36.25;;;19.38;;
28353;SDS011;15603;50.878;8.036;2022-08-19T05:26:25;33.88;;;18.67;;
28353;SDS011;15603;50.878;8.036;2022-08-19T05:28:55;39.58;;;20.50;;
28353;SDS011;15603;50.878;8.036;2022-08-19T05:31:22;37.25;;;18.17;;
28353;SDS011;15603;50.878;8.036;2022-08-19T05:33:49;34.55;;;17.65;;
28353;SDS011;15603;50.878;8.036;2022-08-19T05:36:16;36.08;;;17.55;;
28353;SDS011;15603;50.878;8.036;2022-08-19T05:38:46;33.67;;;18.17;;
28353;SDS011;15603;50.878;8.036;2022-08-19T05:41:14;37.38;;;18.30;;
28353;SDS011;15603;50.878;8.036;2022-08-19T05:43:41;31.98;;;18.30;;
28353;SDS011;15603;50.878;8.036;2022-08-19T05:46:08;34.70;;;17.95;;
28353;SDS011;15603;50.878;8.036;2022-08-19T05:48:53;37.42;;;17.98;;
28353;SDS011;15603;50.878;8.036;2022-08-19T05:51:23;35.00;;;17.73;;
28353;SDS011;15603;50.878;8.036;2022-08-19T05:53:55;34.28;;;18.33;;
28353;SDS011;15603;50.878;8.036;2022-08-19T05:56:22;37.13;;;19.42;;
28353;SDS011;15603;50.878;8.036;2022-08-19T05:58:49;40.22;;;19.13;;
28353;SDS011;15603;50.878;8.036;2022-08-19T06:01:17;36.60;;;18.15;;
28353;SDS011;15603;50.878;8.036;2022-08-19T06:03:45;31.05;;;18.02;;
28353;SDS011;15603;50.878;8.036;2022-08-19T06:06:13;36.58;;;19.42;;
28353;SDS011;15603;50.878;8.036;2022-08-19T06:08:42;37.28;;;18.20;;
28353;SDS011;15603;50.878;8.036;2022-08-19T06:11:23;30.45;;;17.38;;
28353;SDS011;15603;50.878;8.036;2022-08-19T06:14:01;32.95;;;18.33;;
28353;SDS011;15603;50.878;8.036;2022-08-19T06:16:30;34.60;;;18.77;;
28353;SDS011;15603;50.878;8.036;2022-08-19T06:19:01;31.23;;;18.40;;
28353;SDS011;15603;50.878;8.036;2022-08-19T06:21:30;35.15;;;19.08;;
28353;SDS011;15603;50.878;8.036;2022-08-19T06:23:57;36.17;;;18.42;;
28353;SDS011;15603;50.878;8.036;2022-08-19T06:26:24;36.17;;;19.45;;
28353;SDS011;15603;50.878;8.036;2022-08-19T06:28:53;37.78;;;19.27;;
28353;SDS011;15603;50.878;8.036;2022-08-19T06:31:21;37.90;;;18.80;;
28353;SDS011;15603;50.878;8.036;2022-08-19T06:33:51;33.35;;;18.50;;
28353;SDS011;15603;50.878;8.036;2022-08-19T06:36:19;36.40;;;19.60;;
28353;SDS011;15603;50.878;8.036;2022-08-19T06:38:51;33.35;;;17.88;;
28353;SDS011;15603;50.878;8.036;2022-08-19T06:41:18;34.72;;;18.63;;
28353;SDS011;15603;50.878;8.036;2022-08-19T06:43:46;36.20;;;19.55;;
28353;SDS011;15603;50.878;8.036;2022-08-19T06:46:14;31.90;;;18.42;;
28353;SDS011;15603;50.878;8.036;2022-08-19T06:48:43;40.05;;;19.35;;
28353;SDS011;15603;50.878;8.036;2022-08-19T06:51:13;31.67;;;17.10;;
28353;SDS011;15603;50.878;8.036;2022-08-19T06:53:48;32.17;;;17.48;;
28353;SDS011;15603;50.878;8.036;2022-08-19T06:56:18;35.75;;;18.35;;
28353;SDS011;15603;50.878;8.036;2022-08-19T06:58:47;30.83;;;16.90;;
28353;SDS011;15603;50.878;8.036;2022-08-19T07:01:18;37.47;;;19.02;;
28353;SDS011;15603;50.878;8.036;2022-08-19T07:03:46;36.53;;;16.65;;
28353;SDS011;15603;50.878;8.036;2022-08-19T07:06:15;31.40;;;16.85;;
28353;SDS011;15603;50.878;8.036;2022-08-19T07:09:05;30.52;;;17.20;;
28353;SDS011;15603;50.878;8.036;2022-08-19T07:11:33;35.88;;;18.58;;
28353;SDS011;15603;50.878;8.036;2022-08-19T07:14:01;36.70;;;18.40;;
28353;SDS011;15603;50.878;8.036;2022-08-19T07:16:29;39.22;;;18.42;;
28353;SDS011;15603;50.878;8.036;2022-08-19T07:18:57;38.30;;;19.85;;
28353;SDS011;15603;50.878;8.036;2022-08-19T07:21:26;44.78;;;19.80;;
28353;SDS011;15603;50.878;8.036;2022-08-19T07:23:58;41.50;;;19.40;;
28353;SDS011;15603;50.878;8.036;2022-08-19T07:26:32;42.45;;;20.05;;
28353;SDS011;15603;50.878;8.036;2022-08-19T07:29:08;44.35;;;18.92;;
28353;SDS011;15603;50.878;8.036;2022-08-19T07:31:37;37.67;;;18.08;;
28353;SDS011;15603;50.878;8.036;2022-08-19T07:34:05;33.13;;;17.30;;
28353;SDS011;15603;50.878;8.036;2022-08-19T07:36:34;31.13;;;17.02;;
28353;SDS011;15603;50.878;8.036;2022-08-19T07:39:05;41.88;;;15.88;;
28353;SDS011;15603;50.878;8.036;2022-08-19T07:41:38;29.50;;;15.73;;
28353;SDS011;15603;50.878;8.036;2022-08-19T07:44:06;26.50;;;15.13;;
28353;SDS011;15603;50.878;8.036;2022-08-19T07:46:36;23.48;;;13.98;;
28353;SDS011;15603;50.878;8.036;2022-08-19T07:49:06;27.35;;;14.52;;
28353;SDS011;15603;50.878;8.036;2022-08-19T07:51:35;21.35;;;13.48;;
28353;SDS011;15603;50.878;8.036;2022-08-19T07:54:03;20.02;;;12.50;;
28353;SDS011;15603;50.878;8.036;2022-08-19T07:56:30;18.50;;;12.02;;
28353;SDS011;15603;50.878;8.036;2022-08-19T07:58:57;19.92;;;12.40;;
28353;SDS011;15603;50.878;8.036;2022-08-19T08:01:25;25.45;;;13.15;;
28353;SDS011;15603;50.878;8.036;2022-08-19T08:03:55;20.77;;;13.00;;
28353;SDS011;15603;50.878;8.036;2022-08-19T08:06:42;23.70;;;13.60;;
28353;SDS011;15603;50.878;8.036;2022-08-19T08:09:32;23.23;;;12.43;;
28353;SDS011;15603;50.878;8.036;2022-08-19T08:12:10;20.20;;;10.93;;
28353;SDS011;15603;50.878;8.036;2022-08-19T08:15:00;15.18;;;10.13;;
28353;SDS011;15603;50.878;8.036;2022-08-19T08:17:38;16.70;;;10.15;;
28353;SDS011;15603;50.878;8.036;2022-08-19T08:20:17;17.33;;;10.40;;
28353;SDS011;15603;50.878;8.036;2022-08-19T08:22:45;14.18;;;9.82;;
28353;SDS011;15603;50.878;8.036;2022-08-19T08:25:32;12.68;;;7.93;;
28353;SDS011;15603;50.878;8.036;2022-08-19T08:28:02;12.98;;;8.18;;
28353;SDS011;15603;50.878;8.036;2022-08-19T08:30:30;14.32;;;9.20;;
28353;SDS011;15603;50.878;8.036;2022-08-19T08:33:00;14.93;;;9.32;;
28353;SDS011;15603;50.878;8.036;2022-08-19T08:35:28;13.20;;;8.40;;
28353;SDS011;15603;50.878;8.036;2022-08-19T08:37:56;13.90;;;8.68;;
28353;SDS011;15603;50.878;8.036;2022-08-19T08:40:29;14.25;;;9.25;;
28353;SDS011;15603;50.878;8.036;2022-08-19T08:43:22;18.05;;;10.70;;
28353;SDS011;15603;50.878;8.036;2022-08-19T08:48:41;15.80;;;10.23;;
28353;SDS011;15603;50.878;8.036;2022-08-19T08:51:20;20.92;;;11.43;;
28353;SDS011;15603;50.878;8.036;2022-08-19T08:53:55;18.70;;;11.13;;
28353;SDS011;15603;50.878;8.036;2022-08-19T08:56:24;20.63;;;12.60;;
28353;SDS011;15603;50.878;8.036;2022-08-19T08:58:57;17.52;;;11.80;;
28353;SDS011;15603;50.878;8.036;2022-08-19T09:01:28;24.98;;;11.40;;
28353;SDS011;15603;50.878;8.036;2022-08-19T09:03:56;16.90;;;10.27;;
28353;SDS011;15603;50.878;8.036;2022-08-19T09:06:37;17.92;;;12.18;;
28353;SDS011;15603;50.878;8.036;2022-08-19T09:09:12;17.80;;;11.88;;
28353;SDS011;15603;50.878;8.036;2022-08-19T09:14:44;17.23;;;11.68;;
28353;SDS011;15603;50.878;8.036;2022-08-19T09:17:22;19.00;;;10.80;;
28353;SDS011;15603;50.878;8.036;2022-08-19T09:19:55;17.95;;;11.13;;
28353;SDS011;15603;50.878;8.036;2022-08-19T09:22:31;19.27;;;12.77;;
28353;SDS011;15603;50.878;8.036;2022-08-19T09:24:58;16.10;;;10.63;;
28353;SDS011;15603;50.878;8.036;2022-08-19T09:27:26;20.70;;;9.85;;
28353;SDS011;15603;50.878;8.036;2022-08-19T09:30:13;16.20;;;9.68;;
28353;SDS011;15603;50.878;8.036;2022-08-19T09:32:46;16.98;;;10.20;;
28353;SDS011;15603;50.878;8.036;2022-08-19T09:35:19;14.65;;;9.00;;
28353;SDS011;15603;50.878;8.036;2022-08-19T09:37:54;13.32;;;7.97;;
28353;SDS011;15603;50.878;8.036;2022-08-19T09:40:28;12.48;;;8.57;;
28353;SDS011;15603;50.878;8.036;2022-08-19T09:43:03;16.13;;;9.57;;
28353;SDS011;15603;50.878;8.036;2022-08-19T09:45:39;16.77;;;9.70;;
28353;SDS011;15603;50.878;8.036;2022-08-19T09:48:06;14.07;;;8.30;;
28353;SDS011;15603;50.878;8.036;2022-08-19T09:50:35;11.38;;;8.00;;
28353;SDS011;15603;50.878;8.036;2022-08-19T09:53:18;14.52;;;7.88;;
28353;SDS011;15603;50.878;8.036;2022-08-19T09:55:45;13.65;;;7.65;;
28353;SDS011;15603;50.878;8.036;2022-08-19T09:58:13;12.30;;;7.40;;
28353;SDS011;15603;50.878;8.036;2022-08-19T10:00:40;10.40;;;6.47;;
28353;SDS011;15603;50.878;8.036;2022-08-19T10:03:07;9.02;;;6.15;;
28353;SDS011;15603;50.878;8.036;2022-08-19T10:05:34;10.35;;;7.03;;
28353;SDS011;15603;50.878;8.036;2022-08-19T10:08:31;8.70;;;5.22;;
28353;SDS011;15603;50.878;8.036;2022-08-19T10:11:00;7.28;;;4.05;;
28353;SDS011;15603;50.878;8.036;2022-08-19T10:13:48;6.03;;;3.53;;
28353;SDS011;15603;50.878;8.036;2022-08-19T10:16:18;9.27;;;4.30;;
28353;SDS011;15603;50.878;8.036;2022-08-19T10:18:52;4.75;;;3.53;;
28353;SDS011;15603;50.878;8.036;2022-08-19T10:21:25;4.57;;;3.42;;
28353;SDS011;15603;50.878;8.036;2022-08-19T10:23:58;6.70;;;4.13;;
28353;SDS011;15603;50.878;8.036;2022-08-19T10:26:31;6.35;;;4.13;;
28353;SDS011;15603;50.878;8.036;2022-08-19T10:29:02;5.20;;;2.90;;
28353;SDS011;15603;50.878;8.036;2022-08-19T10:31:32;5.57;;;2.80;;
28353;SDS011;15603;50.878;8.036;2022-08-19T10:34:20;4.15;;;3.05;;
28353;SDS011;15603;50.878;8.036;2022-08-19T10:36:54;3.13;;;2.50;;
28353;SDS011;15603;50.878;8.036;2022-08-19T10:39:30;5.47;;;3.05;;
28353;SDS011;15603;50.878;8.036;2022-08-19T10:42:09;4.53;;;2.87;;
28353;SDS011;15603;50.878;8.036;2022-08-19T10:44:40;4.38;;;2.97;;
28353;SDS011;15603;50.878;8.036;2022-08-19T10:47:08;3.15;;;2.33;;
28353;SDS011;15603;50.878;8.036;2022-08-19T10:49:50;4.73;;;3.20;;
28353;SDS011;15603;50.878;8.036;2022-08-19T10:52:45;3.72;;;2.75;;
28353;SDS011;15603;50.878;8.036;2022-08-19T10:55:17;7.75;;;2.67;;
28353;SDS011;15603;50.878;8.036;2022-08-19T10:58:09;3.00;;;2.38;;
28353;SDS011;15603;50.878;8.036;2022-08-19T11:00:39;4.53;;;2.45;;
28353;SDS011;15603;50.878;8.036;2022-08-19T11:03:07;5.90;;;3.45;;
28353;SDS011;15603;50.878;8.036;2022-08-19T11:05:35;6.15;;;2.72;;
28353;SDS011;15603;50.878;8.036;2022-08-19T11:08:07;4.47;;;2.67;;
28353;SDS011;15603;50.878;8.036;2022-08-19T11:10:50;5.32;;;2.83;;
28353;SDS011;15603;50.878;8.036;2022-08-19T11:13:20;6.68;;;3.42;;
28353;SDS011;15603;50.878;8.036;2022-08-19T11:16:03;19.98;;;3.17;;
28353;SDS011;15603;50.878;8.036;2022-08-19T11:18:36;3.83;;;2.60;;
28353;SDS011;15603;50.878;8.036;2022-08-19T11:21:10;5.93;;;3.00;;
28353;SDS011;15603;50.878;8.036;2022-08-19T11:23:40;3.50;;;1.90;;
28353;SDS011;15603;50.878;8.036;2022-08-19T11:26:07;5.68;;;2.35;;
28353;SDS011;15603;50.878;8.036;2022-08-19T11:28:34;4.43;;;2.17;;
28353;SDS011;15603;50.878;8.036;2022-08-19T11:31:02;5.35;;;2.38;;
28353;SDS011;15603;50.878;8.036;2022-08-19T11:33:30;3.20;;;2.10;;
28353;SDS011;15603;50.878;8.036;2022-08-19T11:35:58;3.13;;;2.35;;
28353;SDS011;15603;50.878;8.036;2022-08-19T11:38:26;3.35;;;2.45;;
28353;SDS011;15603;50.878;8.036;2022-08-19T11:41:02;4.03;;;2.95;;
28353;SDS011;15603;50.878;8.036;2022-08-19T11:43:31;4.35;;;2.47;;
28353;SDS011;15603;50.878;8.036;2022-08-19T11:46:06;4.38;;;2.00;;
28353;SDS011;15603;50.878;8.036;2022-08-19T11:48:36;7.32;;;2.47;;
28353;SDS011;15603;50.878;8.036;2022-08-19T11:51:08;2.75;;;1.92;;
28353;SDS011;15603;50.878;8.036;2022-08-19T11:53:38;3.55;;;1.75;;
28353;SDS011;15603;50.878;8.036;2022-08-19T11:56:06;2.95;;;1.83;;
28353;SDS011;15603;50.878;8.036;2022-08-19T11:58:35;2.85;;;2.20;;
28353;SDS011;15603;50.878;8.036;2022-08-19T12:01:07;3.75;;;2.00;;
28353;SDS011;15603;50.878;8.036;2022-08-19T12:03:35;4.13;;;1.80;;
28353;SDS011;15603;50.878;8.036;2022-08-19T12:06:05;3.47;;;1.80;;
28353;SDS011;15603;50.878;8.036;2022-08-19T12:08:33;2.53;;;2.00;;
28353;SDS011;15603;50.878;8.036;2022-08-19T12:11:00;3.03;;;2.10;;
28353;SDS011;15603;50.878;8.036;2022-08-19T12:13:30;4.50;;;2.88;;
28353;SDS011;15603;50.878;8.036;2022-08-19T12:15:57;5.00;;;2.10;;
28353;SDS011;15603;50.878;8.036;2022-08-19T12:18:26;3.22;;;2.03;;
28353;SDS011;15603;50.878;8.036;2022-08-19T12:20:53;3.15;;;2.53;;
28353;SDS011;15603;50.878;8.036;2022-08-19T12:23:23;3.58;;;2.45;;
28353;SDS011;15603;50.878;8.036;2022-08-19T12:25:51;3.78;;;2.15;;
28353;SDS011;15603;50.878;8.036;2022-08-19T12:28:19;6.05;;;2.60;;
28353;SDS011;15603;50.878;8.036;2022-08-19T12:30:47;4.45;;;2.42;;
28353;SDS011;15603;50.878;8.036;2022-08-19T12:33:18;3.70;;;2.65;;
28353;SDS011;15603;50.878;8.036;2022-08-19T12:35:46;3.50;;;2.47;;
28353;SDS011;15603;50.878;8.036;2022-08-19T12:38:13;3.40;;;2.45;;
28353;SDS011;15603;50.878;8.036;2022-08-19T12:40:41;2.38;;;1.95;;
28353;SDS011;15603;50.878;8.036;2022-08-19T12:43:13;3.28;;;2.28;;
28353;SDS011;15603;50.878;8.036;2022-08-19T12:45:42;3.78;;;2.38;;
28353;SDS011;15603;50.878;8.036;2022-08-19T12:48:12;4.82;;;2.40;;
28353;SDS011;15603;50.878;8.036;2022-08-19T12:50:59;5.90;;;2.67;;
28353;SDS011;15603;50.878;8.036;2022-08-19T12:53:32;4.75;;;3.13;;
28353;SDS011;15603;50.878;8.036;2022-08-19T12:56:00;5.57;;;2.40;;
28353;SDS011;15603;50.878;8.036;2022-08-19T12:58:27;4.63;;;2.80;;
28353;SDS011;15603;50.878;8.036;2022-08-19T13:00:55;4.80;;;3.25;;
28353;SDS011;15603;50.878;8.036;2022-08-19T13:03:23;6.00;;;3.55;;
28353;SDS011;15603;50.878;8.036;2022-08-19T13:08:23;4.47;;;3.28;;
28353;SDS011;15603;50.878;8.036;2022-08-19T13:10:50;5.25;;;2.90;;
28353;SDS011;15603;50.878;8.036;2022-08-19T13:13:17;3.92;;;2.90;;
28353;SDS011;15603;50.878;8.036;2022-08-19T13:15:44;3.75;;;2.65;;
28353;SDS011;15603;50.878;8.036;2022-08-19T13:18:12;7.35;;;3.40;;
28353;SDS011;15603;50.878;8.036;2022-08-19T13:20:39;4.57;;;2.70;;
28353;SDS011;15603;50.878;8.036;2022-08-19T13:23:18;2.70;;;2.40;;
28353;SDS011;15603;50.878;8.036;2022-08-19T13:25:54;5.63;;;2.95;;
28353;SDS011;15603;50.878;8.036;2022-08-19T13:28:22;4.68;;;2.72;;
28353;SDS011;15603;50.878;8.036;2022-08-19T13:30:55;5.88;;;3.47;;
28353;SDS011;15603;50.878;8.036;2022-08-19T13:33:40;3.05;;;2.75;;
28353;SDS011;15603;50.878;8.036;2022-08-19T13:36:07;5.47;;;2.92;;
28353;SDS011;15603;50.878;8.036;2022-08-19T13:38:34;4.35;;;3.05;;
28353;SDS011;15603;50.878;8.036;2022-08-19T13:41:04;4.88;;;3.05;;
28353;SDS011;15603;50.878;8.036;2022-08-19T13:43:39;4.60;;;3.20;;
28353;SDS011;15603;50.878;8.036;2022-08-19T13:46:10;6.93;;;2.97;;
28353;SDS011;15603;50.878;8.036;2022-08-19T13:48:40;10.88;;;4.10;;
28353;SDS011;15603;50.878;8.036;2022-08-19T13:51:08;5.78;;;3.25;;
28353;SDS011;15603;50.878;8.036;2022-08-19T13:53:37;9.00;;;3.28;;
28353;SDS011;15603;50.878;8.036;2022-08-19T13:56:05;3.92;;;2.95;;
28353;SDS011;15603;50.878;8.036;2022-08-19T13:58:34;7.65;;;3.97;;
28353;SDS011;15603;50.878;8.036;2022-08-19T14:01:01;6.03;;;3.58;;
28353;SDS011;15603;50.878;8.036;2022-08-19T14:03:28;4.40;;;3.28;;
28353;SDS011;15603;50.878;8.036;2022-08-19T14:05:55;5.55;;;3.50;;
28353;SDS011;15603;50.878;8.036;2022-08-19T14:08:23;9.00;;;4.07;;
28353;SDS011;15603;50.878;8.036;2022-08-19T14:10:50;4.00;;;3.42;;
28353;SDS011;15603;50.878;8.036;2022-08-19T14:13:19;5.35;;;3.47;;
28353;SDS011;15603;50.878;8.036;2022-08-19T14:15:48;7.13;;;3.15;;
28353;SDS011;15603;50.878;8.036;2022-08-19T14:18:17;4.43;;;3.13;;
28353;SDS011;15603;50.878;8.036;2022-08-19T14:20:45;6.30;;;2.83;;
28353;SDS011;15603;50.878;8.036;2022-08-19T14:23:12;10.82;;;3.60;;
28353;SDS011;15603;50.878;8.036;2022-08-19T14:25:40;4.05;;;2.85;;
28353;SDS011;15603;50.878;8.036;2022-08-19T14:28:08;4.10;;;2.75;;
28353;SDS011;15603;50.878;8.036;2022-08-19T14:30:35;6.22;;;3.10;;
28353;SDS011;15603;50.878;8.036;2022-08-19T14:33:04;5.82;;;2.78;;
28353;SDS011;15603;50.878;8.036;2022-08-19T14:35:32;6.90;;;4.03;;
28353;SDS011;15603;50.878;8.036;2022-08-19T14:38:03;7.07;;;2.95;;
28353;SDS011;15603;50.878;8.036;2022-08-19T14:40:31;6.60;;;3.20;;
28353;SDS011;15603;50.878;8.036;2022-08-19T14:43:01;3.53;;;2.80;;
28353;SDS011;15603;50.878;8.036;2022-08-19T14:45:32;3.70;;;2.63;;
28353;SDS011;15603;50.878;8.036;2022-08-19T14:48:04;5.00;;;2.67;;
28353;SDS011;15603;50.878;8.036;2022-08-19T14:50:33;4.68;;;2.90;;
28353;SDS011;15603;50.878;8.036;2022-08-19T14:53:02;4.88;;;2.65;;
28353;SDS011;15603;50.878;8.036;2022-08-19T14:55:40;3.67;;;2.85;;
28353;SDS011;15603;50.878;8.036;2022-08-19T14:58:08;4.63;;;2.80;;
28353;SDS011;15603;50.878;8.036;2022-08-19T15:00:56;2.97;;;2.67;;
28353;SDS011;15603;50.878;8.036;2022-08-19T15:03:25;3.60;;;2.78;;
28353;SDS011;15603;50.878;8.036;2022-08-19T15:05:52;6.00;;;2.80;;